sensor_id;sensor_type;location;lat;lon;timestamp;temperature;humidity
148;DHT22;142;50.652;12.216;2023-03-04T00:00:01;1.40;34.00
148;DHT22;142;50.652;12.216;2023-03-04T00:02:28;1.50;33.90
148;DHT22;142;50.652;12.216;2023-03-04T00:04:55;1.50;34.10
148;DHT22;142;50.652;12.216;2023-03-04T00:07:24;1.50;34.00
148;DHT22;142;50.652;12.216;2023-03-04T00:09:51;1.50;34.10
148;DHT22;142;50.652;12.216;2023-03-04T00:12:19;1.60;34.20
148;DHT22;142;50.652;12.216;2023-03-04T00:14:46;1.70;34.30
148;DHT22;142;50.652;12.216;2023-03-04T00:17:14;1.60;34.00
148;DHT22;142;50.652;12.216;2023-03-04T00:19:41;1.60;34.10
148;DHT22;142;50.652;12.216;2023-03-04T00:22:08;1.60;34.00
148;DHT22;142;50.652;12.216;2023-03-04T00:24:37;1.60;34.10
148;DHT22;142;50.652;12.216;2023-03-04T00:27:04;1.60;33.90
148;DHT22;142;50.652;12.216;2023-03-04T00:29:32;1.70;34.00
148;DHT22;142;50.652;12.216;2023-03-04T00:31:59;1.60;34.10
148;DHT22;142;50.652;12.216;2023-03-04T00:34:26;1.60;34.00
148;DHT22;142;50.652;12.216;2023-03-04T00:36:53;1.70;34.10
148;DHT22;142;50.652;12.216;2023-03-04T00:39:25;1.70;34.10
148;DHT22;142;50.652;12.216;2023-03-04T00:41:54;1.80;34.00
148;DHT22;142;50.652;12.216;2023-03-04T00:44:22;1.80;34.10
148;DHT22;142;50.652;12.216;2023-03-04T00:46:49;1.80;34.10
148;DHT22;142;50.652;12.216;2023-03-04T00:49:16;1.70;33.90
148;DHT22;142;50.652;12.216;2023-03-04T00:51:44;1.60;33.90
148;DHT22;142;50.652;12.216;2023-03-04T00:54:11;1.60;34.00
148;DHT22;142;50.652;12.216;2023-03-04T00:56:38;1.60;34.10
148;DHT22;142;50.652;12.216;2023-03-04T00:59:07;1.60;34.10
148;DHT22;142;50.652;12.216;2023-03-04T01:01:34;1.60;34.20
148;DHT22;142;50.652;12.216;2023-03-04T01:04:02;1.60;34.20
148;DHT22;142;50.652;12.216;2023-03-04T01:06:29;1.60;34.30
148;DHT22;142;50.652;12.216;2023-03-04T01:08:56;1.70;34.30
148;DHT22;142;50.652;12.216;2023-03-04T01:11:23;1.60;34.20
148;DHT22;142;50.652;12.216;2023-03-04T01:13:51;1.60;34.20
148;DHT22;142;50.652;12.216;2023-03-04T01:16:20;1.50;34.20
148;DHT22;142;50.652;12.216;2023-03-04T01:18:47;1.50;34.40
148;DHT22;142;50.652;12.216;2023-03-04T01:21:15;1.40;34.60
148;DHT22;142;50.652;12.216;2023-03-04T01:23:41;1.50;34.70
148;DHT22;142;50.652;12.216;2023-03-04T01:26:09;1.50;34.70
148;DHT22;142;50.652;12.216;2023-03-04T01:28:36;1.40;34.70
148;DHT22;142;50.652;12.216;2023-03-04T01:31:03;1.50;34.70
148;DHT22;142;50.652;12.216;2023-03-04T01:33:32;1.50;34.70
148;DHT22;142;50.652;12.216;2023-03-04T01:35:59;1.50;34.70
148;DHT22;142;50.652;12.216;2023-03-04T01:38:26;1.40;34.50
148;DHT22;142;50.652;12.216;2023-03-04T01:40:53;1.50;34.60
148;DHT22;142;50.652;12.216;2023-03-04T01:43:23;1.50;34.60
148;DHT22;142;50.652;12.216;2023-03-04T01:45:52;1.50;34.50
148;DHT22;142;50.652;12.216;2023-03-04T01:48:24;1.50;34.40
148;DHT22;142;50.652;12.216;2023-03-04T01:50:53;1.60;34.60
148;DHT22;142;50.652;12.216;2023-03-04T01:53:22;1.70;34.60
148;DHT22;142;50.652;12.216;2023-03-04T01:55:51;1.80;34.60
148;DHT22;142;50.652;12.216;2023-03-04T01:58:19;1.80;34.60
148;DHT22;142;50.652;12.216;2023-03-04T02:00:46;1.80;34.40
148;DHT22;142;50.652;12.216;2023-03-04T02:03:15;1.80;34.30
148;DHT22;142;50.652;12.216;2023-03-04T02:05:46;1.80;34.10
148;DHT22;142;50.652;12.216;2023-03-04T02:08:18;1.80;34.20
148;DHT22;142;50.652;12.216;2023-03-04T02:10:45;1.80;34.10
148;DHT22;142;50.652;12.216;2023-03-04T02:13:14;1.90;34.20
148;DHT22;142;50.652;12.216;2023-03-04T02:15:42;1.80;34.10
148;DHT22;142;50.652;12.216;2023-03-04T02:18:14;1.80;34.00
148;DHT22;142;50.652;12.216;2023-03-04T02:20:47;1.80;34.00
148;DHT22;142;50.652;12.216;2023-03-04T02:23:22;1.80;34.00
148;DHT22;142;50.652;12.216;2023-03-04T02:26:07;1.70;34.00
148;DHT22;142;50.652;12.216;2023-03-04T02:28:35;1.70;34.10
148;DHT22;142;50.652;12.216;2023-03-04T02:31:02;1.80;34.10
148;DHT22;142;50.652;12.216;2023-03-04T02:33:29;1.80;34.30
148;DHT22;142;50.652;12.216;2023-03-04T02:35:58;1.80;34.30
148;DHT22;142;50.652;12.216;2023-03-04T02:38:25;1.80;34.10
148;DHT22;142;50.652;12.216;2023-03-04T02:40:54;1.80;34.20
148;DHT22;142;50.652;12.216;2023-03-04T02:43:22;1.90;34.10
148;DHT22;142;50.652;12.216;2023-03-04T02:45:50;2.00;34.20
148;DHT22;142;50.652;12.216;2023-03-04T02:48:20;2.00;34.10
148;DHT22;142;50.652;12.216;2023-03-04T02:50:50;2.00;33.90
148;DHT22;142;50.652;12.216;2023-03-04T02:53:19;2.00;34.10
148;DHT22;142;50.652;12.216;2023-03-04T02:55:46;1.90;33.90
148;DHT22;142;50.652;12.216;2023-03-04T02:58:14;1.90;33.80
148;DHT22;142;50.652;12.216;2023-03-04T03:00:43;2.10;34.00
148;DHT22;142;50.652;12.216;2023-03-04T03:03:10;2.10;34.10
148;DHT22;142;50.652;12.216;2023-03-04T03:05:38;2.00;33.90
148;DHT22;142;50.652;12.216;2023-03-04T03:08:06;2.10;33.90
148;DHT22;142;50.652;12.216;2023-03-04T03:10:33;2.10;33.90
148;DHT22;142;50.652;12.216;2023-03-04T03:13:00;2.20;33.90
148;DHT22;142;50.652;12.216;2023-03-04T03:15:27;2.20;33.90
148;DHT22;142;50.652;12.216;2023-03-04T03:17:56;2.20;33.80
148;DHT22;142;50.652;12.216;2023-03-04T03:20:24;2.20;33.70
148;DHT22;142;50.652;12.216;2023-03-04T03:22:51;2.20;33.80
148;DHT22;142;50.652;12.216;2023-03-04T03:25:18;2.20;33.60
148;DHT22;142;50.652;12.216;2023-03-04T03:27:45;2.20;33.50
148;DHT22;142;50.652;12.216;2023-03-04T03:30:15;2.20;33.80
148;DHT22;142;50.652;12.216;2023-03-04T03:32:43;2.30;33.60
148;DHT22;142;50.652;12.216;2023-03-04T03:35:12;2.20;33.70
148;DHT22;142;50.652;12.216;2023-03-04T03:37:39;2.20;33.50
148;DHT22;142;50.652;12.216;2023-03-04T03:40:07;2.30;33.70
148;DHT22;142;50.652;12.216;2023-03-04T03:42:35;2.30;33.60
148;DHT22;142;50.652;12.216;2023-03-04T03:45:03;2.40;33.50
148;DHT22;142;50.652;12.216;2023-03-04T03:47:30;2.40;33.70
148;DHT22;142;50.652;12.216;2023-03-04T03:49:57;2.30;33.50
148;DHT22;142;50.652;12.216;2023-03-04T03:52:26;2.30;33.60
148;DHT22;142;50.652;12.216;2023-03-04T03:54:52;2.30;33.50
148;DHT22;142;50.652;12.216;2023-03-04T03:57:19;2.30;33.50
148;DHT22;142;50.652;12.216;2023-03-04T03:59:46;2.50;33.50
148;DHT22;142;50.652;12.216;2023-03-04T04:02:14;2.50;33.60
148;DHT22;142;50.652;12.216;2023-03-04T04:04:41;2.60;33.60
148;DHT22;142;50.652;12.216;2023-03-04T04:07:08;2.50;33.30
148;DHT22;142;50.652;12.216;2023-03-04T04:09:37;2.50;33.40
148;DHT22;142;50.652;12.216;2023-03-04T04:12:04;2.40;33.40
148;DHT22;142;50.652;12.216;2023-03-04T04:14:32;2.50;33.40
148;DHT22;142;50.652;12.216;2023-03-04T04:16:59;2.60;33.40
148;DHT22;142;50.652;12.216;2023-03-04T04:19:27;2.60;33.40
148;DHT22;142;50.652;12.216;2023-03-04T04:21:54;2.50;33.30
148;DHT22;142;50.652;12.216;2023-03-04T04:24:21;2.50;33.20
148;DHT22;142;50.652;12.216;2023-03-04T04:26:50;2.60;33.40
148;DHT22;142;50.652;12.216;2023-03-04T04:29:17;2.60;33.40
148;DHT22;142;50.652;12.216;2023-03-04T04:31:44;2.60;33.40
148;DHT22;142;50.652;12.216;2023-03-04T04:34:11;2.70;33.30
148;DHT22;142;50.652;12.216;2023-03-04T04:36:38;2.70;33.40
148;DHT22;142;50.652;12.216;2023-03-04T04:39:06;2.70;33.10
148;DHT22;142;50.652;12.216;2023-03-04T04:41:36;2.70;33.40
148;DHT22;142;50.652;12.216;2023-03-04T04:44:05;2.70;33.10
148;DHT22;142;50.652;12.216;2023-03-04T04:46:33;2.80;33.10
148;DHT22;142;50.652;12.216;2023-03-04T04:49:01;2.80;33.10
148;DHT22;142;50.652;12.216;2023-03-04T04:51:28;2.80;33.10
148;DHT22;142;50.652;12.216;2023-03-04T04:53:57;2.80;33.10
148;DHT22;142;50.652;12.216;2023-03-04T04:56:24;2.90;33.20
148;DHT22;142;50.652;12.216;2023-03-04T04:58:52;2.80;33.10
148;DHT22;142;50.652;12.216;2023-03-04T05:01:21;2.90;33.10
148;DHT22;142;50.652;12.216;2023-03-04T05:03:49;2.90;33.00
148;DHT22;142;50.652;12.216;2023-03-04T05:06:18;2.90;33.00
148;DHT22;142;50.652;12.216;2023-03-04T05:08:46;2.90;32.90
148;DHT22;142;50.652;12.216;2023-03-04T05:11:14;2.90;32.90
148;DHT22;142;50.652;12.216;2023-03-04T05:13:42;3.00;32.90
148;DHT22;142;50.652;12.216;2023-03-04T05:16:09;3.10;33.00
148;DHT22;142;50.652;12.216;2023-03-04T05:18:37;3.10;32.90
148;DHT22;142;50.652;12.216;2023-03-04T05:21:05;3.10;32.70
148;DHT22;142;50.652;12.216;2023-03-04T05:23:34;3.00;32.80
148;DHT22;142;50.652;12.216;2023-03-04T05:26:03;3.00;32.80
148;DHT22;142;50.652;12.216;2023-03-04T05:28:31;3.00;32.70
148;DHT22;142;50.652;12.216;2023-03-04T05:30:59;3.00;32.70
148;DHT22;142;50.652;12.216;2023-03-04T05:33:26;3.00;32.80
148;DHT22;142;50.652;12.216;2023-03-04T05:35:55;3.10;32.60
148;DHT22;142;50.652;12.216;2023-03-04T05:38:23;3.10;32.60
148;DHT22;142;50.652;12.216;2023-03-04T05:40:56;3.10;32.70
148;DHT22;142;50.652;12.216;2023-03-04T05:43:24;3.10;32.80
148;DHT22;142;50.652;12.216;2023-03-04T05:45:52;3.00;32.50
148;DHT22;142;50.652;12.216;2023-03-04T05:48:20;3.00;32.70
148;DHT22;142;50.652;12.216;2023-03-04T05:50:51;3.10;32.60
148;DHT22;142;50.652;12.216;2023-03-04T05:53:20;3.10;32.60
148;DHT22;142;50.652;12.216;2023-03-04T05:55:47;3.10;33.00
148;DHT22;142;50.652;12.216;2023-03-04T05:58:15;3.00;32.40
148;DHT22;142;50.652;12.216;2023-03-04T06:00:42;2.90;32.70
148;DHT22;142;50.652;12.216;2023-03-04T06:03:13;2.90;32.70
148;DHT22;142;50.652;12.216;2023-03-04T06:05:40;2.80;32.70
148;DHT22;142;50.652;12.216;2023-03-04T06:08:08;2.80;32.80
148;DHT22;142;50.652;12.216;2023-03-04T06:10:37;2.80;32.90
148;DHT22;142;50.652;12.216;2023-03-04T06:13:05;2.80;32.80
148;DHT22;142;50.652;12.216;2023-03-04T06:15:32;2.90;32.80
148;DHT22;142;50.652;12.216;2023-03-04T06:17:59;3.00;32.90
148;DHT22;142;50.652;12.216;2023-03-04T06:20:27;3.10;32.90
148;DHT22;142;50.652;12.216;2023-03-04T06:22:54;3.00;32.90
148;DHT22;142;50.652;12.216;2023-03-04T06:25:21;3.00;32.70
148;DHT22;142;50.652;12.216;2023-03-04T06:27:50;3.00;32.80
148;DHT22;142;50.652;12.216;2023-03-04T06:30:18;3.00;32.50
148;DHT22;142;50.652;12.216;2023-03-04T06:32:46;3.00;32.80
148;DHT22;142;50.652;12.216;2023-03-04T06:35:14;3.10;32.60
148;DHT22;142;50.652;12.216;2023-03-04T06:37:42;3.10;32.60
148;DHT22;142;50.652;12.216;2023-03-04T06:40:10;3.10;32.60
148;DHT22;142;50.652;12.216;2023-03-04T06:42:37;3.10;32.50
148;DHT22;142;50.652;12.216;2023-03-04T06:45:07;3.10;32.60
148;DHT22;142;50.652;12.216;2023-03-04T06:47:35;3.10;32.50
148;DHT22;142;50.652;12.216;2023-03-04T06:50:02;3.10;32.80
148;DHT22;142;50.652;12.216;2023-03-04T06:52:30;3.10;32.40
148;DHT22;142;50.652;12.216;2023-03-04T06:54:56;3.20;32.50
148;DHT22;142;50.652;12.216;2023-03-04T06:57:24;3.30;32.60
148;DHT22;142;50.652;12.216;2023-03-04T06:59:51;3.30;32.50
148;DHT22;142;50.652;12.216;2023-03-04T07:02:19;3.20;32.40
148;DHT22;142;50.652;12.216;2023-03-04T07:04:47;3.20;32.40
148;DHT22;142;50.652;12.216;2023-03-04T07:07:14;3.20;32.50
148;DHT22;142;50.652;12.216;2023-03-04T07:09:41;3.30;32.40
148;DHT22;142;50.652;12.216;2023-03-04T07:12:09;3.40;32.60
148;DHT22;142;50.652;12.216;2023-03-04T07:14:36;3.30;32.30
148;DHT22;142;50.652;12.216;2023-03-04T07:17:03;3.30;32.30
148;DHT22;142;50.652;12.216;2023-03-04T07:19:32;3.40;32.40
148;DHT22;142;50.652;12.216;2023-03-04T07:21:59;3.40;32.40
148;DHT22;142;50.652;12.216;2023-03-04T07:24:26;3.40;32.40
148;DHT22;142;50.652;12.216;2023-03-04T07:26:53;3.40;32.30
148;DHT22;142;50.652;12.216;2023-03-04T07:29:21;3.60;32.40
148;DHT22;142;50.652;12.216;2023-03-04T07:31:48;3.60;32.30
148;DHT22;142;50.652;12.216;2023-03-04T07:34:15;3.70;32.20
148;DHT22;142;50.652;12.216;2023-03-04T07:36:44;3.70;32.20
148;DHT22;142;50.652;12.216;2023-03-04T07:39:12;3.80;32.20
148;DHT22;142;50.652;12.216;2023-03-04T07:41:39;3.70;32.10
148;DHT22;142;50.652;12.216;2023-03-04T07:44:07;3.70;32.10
148;DHT22;142;50.652;12.216;2023-03-04T07:46:34;3.80;32.10
148;DHT22;142;50.652;12.216;2023-03-04T07:49:02;3.90;32.20
148;DHT22;142;50.652;12.216;2023-03-04T07:51:29;3.80;31.90
148;DHT22;142;50.652;12.216;2023-03-04T07:54:00;3.80;31.90
148;DHT22;142;50.652;12.216;2023-03-04T07:56:29;3.80;32.00
148;DHT22;142;50.652;12.216;2023-03-04T07:58:56;3.80;32.00
148;DHT22;142;50.652;12.216;2023-03-04T08:01:25;3.80;32.20
148;DHT22;142;50.652;12.216;2023-03-04T08:03:53;3.80;31.90
148;DHT22;142;50.652;12.216;2023-03-04T08:06:21;3.80;32.00
148;DHT22;142;50.652;12.216;2023-03-04T08:08:49;3.80;32.00
148;DHT22;142;50.652;12.216;2023-03-04T08:11:22;3.80;32.00
148;DHT22;142;50.652;12.216;2023-03-04T08:13:49;3.90;31.80
148;DHT22;142;50.652;12.216;2023-03-04T08:16:19;4.00;32.10
148;DHT22;142;50.652;12.216;2023-03-04T08:18:48;4.00;31.80
148;DHT22;142;50.652;12.216;2023-03-04T08:21:17;4.00;31.90
148;DHT22;142;50.652;12.216;2023-03-04T08:23:45;3.90;32.20
148;DHT22;142;50.652;12.216;2023-03-04T08:26:16;3.90;31.90
148;DHT22;142;50.652;12.216;2023-03-04T08:28:45;3.90;31.90
148;DHT22;142;50.652;12.216;2023-03-04T08:31:13;3.90;32.10
148;DHT22;142;50.652;12.216;2023-03-04T08:33:40;4.00;32.10
148;DHT22;142;50.652;12.216;2023-03-04T08:36:09;4.00;31.80
148;DHT22;142;50.652;12.216;2023-03-04T08:38:37;4.10;31.80
148;DHT22;142;50.652;12.216;2023-03-04T08:41:04;4.10;31.70
148;DHT22;142;50.652;12.216;2023-03-04T08:43:32;4.10;31.90
148;DHT22;142;50.652;12.216;2023-03-04T08:46:01;4.20;31.80
148;DHT22;142;50.652;12.216;2023-03-04T08:48:28;4.20;31.80
148;DHT22;142;50.652;12.216;2023-03-04T08:50:55;4.20;32.00
148;DHT22;142;50.652;12.216;2023-03-04T08:53:23;4.30;31.90
148;DHT22;142;50.652;12.216;2023-03-04T08:55:51;4.20;31.80
148;DHT22;142;50.652;12.216;2023-03-04T08:58:18;4.30;31.80
148;DHT22;142;50.652;12.216;2023-03-04T09:00:47;4.50;32.00
148;DHT22;142;50.652;12.216;2023-03-04T09:03:18;4.40;31.70
148;DHT22;142;50.652;12.216;2023-03-04T09:05:46;4.50;31.60
148;DHT22;142;50.652;12.216;2023-03-04T09:08:13;4.60;31.80
148;DHT22;142;50.652;12.216;2023-03-04T09:10:41;4.70;31.80
148;DHT22;142;50.652;12.216;2023-03-04T09:13:09;4.70;31.60
148;DHT22;142;50.652;12.216;2023-03-04T09:15:37;4.70;31.50
148;DHT22;142;50.652;12.216;2023-03-04T09:18:09;4.70;31.40
148;DHT22;142;50.652;12.216;2023-03-04T09:20:38;4.70;31.60
148;DHT22;142;50.652;12.216;2023-03-04T09:23:05;4.70;31.50
148;DHT22;142;50.652;12.216;2023-03-04T09:25:34;4.80;31.70
148;DHT22;142;50.652;12.216;2023-03-04T09:28:02;4.80;31.60
148;DHT22;142;50.652;12.216;2023-03-04T09:30:29;4.80;31.40
148;DHT22;142;50.652;12.216;2023-03-04T09:32:56;4.80;31.30
148;DHT22;142;50.652;12.216;2023-03-04T09:35:24;4.80;31.40
148;DHT22;142;50.652;12.216;2023-03-04T09:37:53;4.80;31.60
148;DHT22;142;50.652;12.216;2023-03-04T09:40:22;4.80;31.50
148;DHT22;142;50.652;12.216;2023-03-04T09:42:52;4.80;31.50
148;DHT22;142;50.652;12.216;2023-03-04T09:45:21;4.80;31.60
148;DHT22;142;50.652;12.216;2023-03-04T09:47:50;4.90;31.50
148;DHT22;142;50.652;12.216;2023-03-04T09:50:19;4.80;31.60
148;DHT22;142;50.652;12.216;2023-03-04T09:53:00;4.80;31.50
148;DHT22;142;50.652;12.216;2023-03-04T09:55:33;4.90;31.60
148;DHT22;142;50.652;12.216;2023-03-04T09:58:06;4.90;31.40
148;DHT22;142;50.652;12.216;2023-03-04T10:00:38;5.00;31.40
148;DHT22;142;50.652;12.216;2023-03-04T10:03:13;4.90;31.30
148;DHT22;142;50.652;12.216;2023-03-04T10:05:45;5.10;31.50
148;DHT22;142;50.652;12.216;2023-03-04T10:08:35;5.20;31.30
148;DHT22;142;50.652;12.216;2023-03-04T10:11:10;5.20;31.20
148;DHT22;142;50.652;12.216;2023-03-04T10:13:45;5.30;31.20
148;DHT22;142;50.652;12.216;2023-03-04T10:16:17;5.40;31.20
148;DHT22;142;50.652;12.216;2023-03-04T10:18:49;5.30;31.40
148;DHT22;142;50.652;12.216;2023-03-04T10:21:22;5.30;31.20
148;DHT22;142;50.652;12.216;2023-03-04T10:23:54;5.30;31.30
148;DHT22;142;50.652;12.216;2023-03-04T10:26:21;5.30;31.00
148;DHT22;142;50.652;12.216;2023-03-04T10:28:49;5.40;31.20
148;DHT22;142;50.652;12.216;2023-03-04T10:31:20;5.40;31.30
148;DHT22;142;50.652;12.216;2023-03-04T10:33:48;5.50;31.00
148;DHT22;142;50.652;12.216;2023-03-04T10:36:33;5.50;31.30
148;DHT22;142;50.652;12.216;2023-03-04T10:39:06;5.60;31.20
148;DHT22;142;50.652;12.216;2023-03-04T10:41:34;5.60;31.00
148;DHT22;142;50.652;12.216;2023-03-04T10:44:03;5.60;31.20
148;DHT22;142;50.652;12.216;2023-03-04T10:46:31;5.60;31.00
148;DHT22;142;50.652;12.216;2023-03-04T10:48:58;5.60;31.10
148;DHT22;142;50.652;12.216;2023-03-04T10:51:27;5.70;31.30
148;DHT22;142;50.652;12.216;2023-03-04T10:53:59;5.80;31.10
148;DHT22;142;50.652;12.216;2023-03-04T10:56:39;5.80;31.30
148;DHT22;142;50.652;12.216;2023-03-04T10:59:37;5.80;31.00
148;DHT22;142;50.652;12.216;2023-03-04T11:02:18;5.90;31.10
148;DHT22;142;50.652;12.216;2023-03-04T11:04:50;6.00;30.90
148;DHT22;142;50.652;12.216;2023-03-04T11:07:18;6.10;30.80
148;DHT22;142;50.652;12.216;2023-03-04T11:09:46;6.00;30.90
148;DHT22;142;50.652;12.216;2023-03-04T11:12:18;5.90;30.90
148;DHT22;142;50.652;12.216;2023-03-04T11:14:47;5.80;30.90
148;DHT22;142;50.652;12.216;2023-03-04T11:17:21;5.80;31.00
148;DHT22;142;50.652;12.216;2023-03-04T11:19:53;5.80;31.00
148;DHT22;142;50.652;12.216;2023-03-04T11:22:23;5.90;31.00
148;DHT22;142;50.652;12.216;2023-03-04T11:24:55;5.90;31.40
148;DHT22;142;50.652;12.216;2023-03-04T11:27:33;5.90;31.70
148;DHT22;142;50.652;12.216;2023-03-04T11:30:20;6.00;32.20
148;DHT22;142;50.652;12.216;2023-03-04T11:32:54;5.90;32.00
148;DHT22;142;50.652;12.216;2023-03-04T11:35:25;5.70;32.50
148;DHT22;142;50.652;12.216;2023-03-04T11:38:00;5.80;32.30
148;DHT22;142;50.652;12.216;2023-03-04T11:40:35;5.80;32.80
148;DHT22;142;50.652;12.216;2023-03-04T11:43:11;5.80;32.50
148;DHT22;142;50.652;12.216;2023-03-04T11:45:54;5.80;32.80
148;DHT22;142;50.652;12.216;2023-03-04T11:48:36;5.70;32.80
148;DHT22;142;50.652;12.216;2023-03-04T11:51:09;5.80;33.00
148;DHT22;142;50.652;12.216;2023-03-04T11:53:49;5.80;32.90
148;DHT22;142;50.652;12.216;2023-03-04T11:56:29;5.90;33.20
148;DHT22;142;50.652;12.216;2023-03-04T12:02:12;6.00;33.60
148;DHT22;142;50.652;12.216;2023-03-04T12:04:57;6.10;33.30
148;DHT22;142;50.652;12.216;2023-03-04T12:07:42;6.10;33.20
148;DHT22;142;50.652;12.216;2023-03-04T12:10:19;6.20;33.50
148;DHT22;142;50.652;12.216;2023-03-04T12:15:57;6.30;33.40
148;DHT22;142;50.652;12.216;2023-03-04T12:18:35;6.30;33.70
148;DHT22;142;50.652;12.216;2023-03-04T12:21:22;6.30;33.90
148;DHT22;142;50.652;12.216;2023-03-04T12:24:21;6.30;33.90
148;DHT22;142;50.652;12.216;2023-03-04T12:26:52;6.30;33.90
148;DHT22;142;50.652;12.216;2023-03-04T12:29:28;6.30;33.90
148;DHT22;142;50.652;12.216;2023-03-04T12:32:03;6.20;34.10
148;DHT22;142;50.652;12.216;2023-03-04T12:34:47;6.20;33.70
148;DHT22;142;50.652;12.216;2023-03-04T12:37:43;6.30;34.10
148;DHT22;142;50.652;12.216;2023-03-04T12:40:25;6.20;33.80
148;DHT22;142;50.652;12.216;2023-03-04T12:43:07;6.30;34.00
148;DHT22;142;50.652;12.216;2023-03-04T12:45:43;6.40;33.80
148;DHT22;142;50.652;12.216;2023-03-04T12:48:24;6.40;34.00
148;DHT22;142;50.652;12.216;2023-03-04T12:51:02;6.40;34.00
148;DHT22;142;50.652;12.216;2023-03-04T12:53:38;6.40;34.20
148;DHT22;142;50.652;12.216;2023-03-04T12:56:17;6.30;33.90
148;DHT22;142;50.652;12.216;2023-03-04T12:58:48;6.40;33.90
148;DHT22;142;50.652;12.216;2023-03-04T13:01:20;6.40;34.20
148;DHT22;142;50.652;12.216;2023-03-04T13:03:56;6.30;34.20
148;DHT22;142;50.652;12.216;2023-03-04T13:06:30;6.30;34.30
148;DHT22;142;50.652;12.216;2023-03-04T13:09:04;6.30;34.00
148;DHT22;142;50.652;12.216;2023-03-04T13:11:52;6.40;34.20
148;DHT22;142;50.652;12.216;2023-03-04T13:14:34;6.40;34.30
148;DHT22;142;50.652;12.216;2023-03-04T13:17:38;6.40;34.50
148;DHT22;142;50.652;12.216;2023-03-04T13:20:21;6.40;34.80
148;DHT22;142;50.652;12.216;2023-03-04T13:22:55;6.40;35.10
148;DHT22;142;50.652;12.216;2023-03-04T13:25:34;6.40;34.90
148;DHT22;142;50.652;12.216;2023-03-04T13:28:21;6.40;35.30
148;DHT22;142;50.652;12.216;2023-03-04T13:31:11;6.40;35.50
148;DHT22;142;50.652;12.216;2023-03-04T13:33:51;6.50;35.40
148;DHT22;142;50.652;12.216;2023-03-04T13:36:35;6.60;35.30
148;DHT22;142;50.652;12.216;2023-03-04T13:39:30;6.70;35.50
148;DHT22;142;50.652;12.216;2023-03-04T13:42:00;6.80;35.70
148;DHT22;142;50.652;12.216;2023-03-04T13:44:55;6.80;35.60
148;DHT22;142;50.652;12.216;2023-03-04T13:47:41;6.60;35.70
148;DHT22;142;50.652;12.216;2023-03-04T13:50:33;6.60;35.70
148;DHT22;142;50.652;12.216;2023-03-04T13:53:29;6.60;35.90
148;DHT22;142;50.652;12.216;2023-03-04T13:56:22;6.60;36.00
148;DHT22;142;50.652;12.216;2023-03-04T13:58:52;6.60;35.90
148;DHT22;142;50.652;12.216;2023-03-04T14:01:27;6.60;35.80
148;DHT22;142;50.652;12.216;2023-03-04T14:03:56;6.50;35.90
148;DHT22;142;50.652;12.216;2023-03-04T14:06:25;6.60;35.70
148;DHT22;142;50.652;12.216;2023-03-04T14:08:55;6.60;35.90
148;DHT22;142;50.652;12.216;2023-03-04T14:11:28;6.60;35.70
148;DHT22;142;50.652;12.216;2023-03-04T14:14:02;6.70;36.00
148;DHT22;142;50.652;12.216;2023-03-04T14:16:34;6.70;35.90
148;DHT22;142;50.652;12.216;2023-03-04T14:19:04;6.60;36.10
148;DHT22;142;50.652;12.216;2023-03-04T14:21:32;6.70;35.90
148;DHT22;142;50.652;12.216;2023-03-04T14:24:10;6.60;36.00
148;DHT22;142;50.652;12.216;2023-03-04T14:26:38;6.60;36.10
148;DHT22;142;50.652;12.216;2023-03-04T14:29:20;6.70;36.00
148;DHT22;142;50.652;12.216;2023-03-04T14:31:48;6.70;36.00
148;DHT22;142;50.652;12.216;2023-03-04T14:34:23;6.70;36.40
148;DHT22;142;50.652;12.216;2023-03-04T14:36:51;6.70;36.20
148;DHT22;142;50.652;12.216;2023-03-04T14:39:28;6.70;36.30
148;DHT22;142;50.652;12.216;2023-03-04T14:42:03;6.70;36.70
148;DHT22;142;50.652;12.216;2023-03-04T14:44:36;6.70;36.30
148;DHT22;142;50.652;12.216;2023-03-04T14:47:09;6.80;36.50
148;DHT22;142;50.652;12.216;2023-03-04T14:49:38;6.70;36.70
148;DHT22;142;50.652;12.216;2023-03-04T14:52:06;6.70;36.50
148;DHT22;142;50.652;12.216;2023-03-04T14:55:02;6.70;36.60
148;DHT22;142;50.652;12.216;2023-03-04T14:57:33;6.60;36.70
148;DHT22;142;50.652;12.216;2023-03-04T15:00:22;6.60;36.50
148;DHT22;142;50.652;12.216;2023-03-04T15:02:51;6.60;36.90
148;DHT22;142;50.652;12.216;2023-03-04T15:05:22;6.60;36.60
148;DHT22;142;50.652;12.216;2023-03-04T15:07:51;6.60;36.70
148;DHT22;142;50.652;12.216;2023-03-04T15:10:23;6.70;36.80
148;DHT22;142;50.652;12.216;2023-03-04T15:12:53;6.80;36.60
148;DHT22;142;50.652;12.216;2023-03-04T15:15:34;6.80;36.60
148;DHT22;142;50.652;12.216;2023-03-04T15:18:11;6.80;36.60
148;DHT22;142;50.652;12.216;2023-03-04T15:20:55;6.80;36.60
148;DHT22;142;50.652;12.216;2023-03-04T15:23:24;6.60;36.50
148;DHT22;142;50.652;12.216;2023-03-04T15:25:54;6.60;36.60
148;DHT22;142;50.652;12.216;2023-03-04T15:28:22;6.60;36.30
148;DHT22;142;50.652;12.216;2023-03-04T15:30:50;6.70;36.30
148;DHT22;142;50.652;12.216;2023-03-04T15:33:18;6.80;36.10
148;DHT22;142;50.652;12.216;2023-03-04T15:35:51;6.90;36.60
148;DHT22;142;50.652;12.216;2023-03-04T15:38:19;6.80;36.00
148;DHT22;142;50.652;12.216;2023-03-04T15:40:47;6.70;36.00
148;DHT22;142;50.652;12.216;2023-03-04T15:43:17;6.60;35.60
148;DHT22;142;50.652;12.216;2023-03-04T15:45:45;6.70;35.50
148;DHT22;142;50.652;12.216;2023-03-04T15:48:14;6.70;35.20
148;DHT22;142;50.652;12.216;2023-03-04T15:50:44;6.70;35.10
148;DHT22;142;50.652;12.216;2023-03-04T15:53:18;6.60;35.20
148;DHT22;142;50.652;12.216;2023-03-04T15:55:48;6.40;34.90
148;DHT22;142;50.652;12.216;2023-03-04T15:58:17;6.40;34.70
148;DHT22;142;50.652;12.216;2023-03-04T16:00:44;6.30;34.30
148;DHT22;142;50.652;12.216;2023-03-04T16:03:14;6.20;34.00
148;DHT22;142;50.652;12.216;2023-03-04T16:05:42;6.20;33.30
148;DHT22;142;50.652;12.216;2023-03-04T16:08:11;6.20;33.00
148;DHT22;142;50.652;12.216;2023-03-04T16:10:39;6.20;32.50
148;DHT22;142;50.652;12.216;2023-03-04T16:13:12;6.20;32.20
148;DHT22;142;50.652;12.216;2023-03-04T16:15:42;6.10;32.00
148;DHT22;142;50.652;12.216;2023-03-04T16:18:09;6.20;32.00
148;DHT22;142;50.652;12.216;2023-03-04T16:20:39;6.10;31.90
148;DHT22;142;50.652;12.216;2023-03-04T16:23:11;6.10;31.80
148;DHT22;142;50.652;12.216;2023-03-04T16:25:41;6.10;31.60
148;DHT22;142;50.652;12.216;2023-03-04T16:28:10;6.10;31.70
148;DHT22;142;50.652;12.216;2023-03-04T16:30:37;6.00;31.60
148;DHT22;142;50.652;12.216;2023-03-04T16:33:06;6.10;31.70
148;DHT22;142;50.652;12.216;2023-03-04T16:35:35;6.10;31.60
148;DHT22;142;50.652;12.216;2023-03-04T16:38:03;6.20;31.60
148;DHT22;142;50.652;12.216;2023-03-04T16:40:31;6.20;31.60
148;DHT22;142;50.652;12.216;2023-03-04T16:42:58;6.30;31.50
148;DHT22;142;50.652;12.216;2023-03-04T16:45:27;6.30;31.60
148;DHT22;142;50.652;12.216;2023-03-04T16:47:55;6.30;31.40
148;DHT22;142;50.652;12.216;2023-03-04T16:50:28;6.20;31.30
148;DHT22;142;50.652;12.216;2023-03-04T16:52:55;6.10;31.30
148;DHT22;142;50.652;12.216;2023-03-04T16:55:24;6.00;31.30
148;DHT22;142;50.652;12.216;2023-03-04T16:57:52;5.90;31.40
148;DHT22;142;50.652;12.216;2023-03-04T17:00:21;5.90;31.60
148;DHT22;142;50.652;12.216;2023-03-04T17:02:52;5.80;31.80